createdAt,value
2017-10-19T00:00:22.713Z,31.20
2017-10-19T00:02:49.696Z,30.23
2017-10-19T00:05:15.863Z,43.50
2017-10-19T00:07:42.779Z,36.33
2017-10-19T00:10:09.732Z,33.47
2017-10-19T00:12:36.663Z,35.20
2017-10-19T00:15:02.832Z,42.37
2017-10-19T00:17:29.747Z,47.37
2017-10-19T00:19:55.888Z,37.53
2017-10-19T00:22:22.073Z,32.97
2017-10-19T00:24:48.963Z,31.40
2017-10-19T00:27:15.156Z,26.83
2017-10-19T00:29:41.320Z,31.03
2017-10-19T00:32:08.280Z,36.97
2017-10-19T00:34:35.196Z,41.53
2017-10-19T00:37:03.680Z,54.33
2017-10-19T00:39:29.922Z,67.23
2017-10-19T00:41:56.181Z,54.37
2017-10-19T00:44:22.461Z,240.67
2017-10-19T00:46:48.713Z,80.47
2017-10-19T00:49:14.949Z,83.93
2017-10-19T00:51:41.207Z,160.77
2017-10-19T00:54:07.468Z,94.87
2017-10-19T00:56:33.708Z,88.03
2017-10-19T00:58:59.876Z,102.90
2017-10-19T01:01:26.089Z,73.97
2017-10-19T01:03:52.266Z,81.60
2017-10-19T01:06:18.467Z,71.30
2017-10-19T01:08:44.644Z,81.40
2017-10-19T01:11:10.831Z,100.87
2017-10-19T01:13:36.999Z,100.93
2017-10-19T01:16:03.200Z,70.53
2017-10-19T01:18:30.107Z,73.03
2017-10-19T01:20:56.308Z,73.17
2017-10-19T01:23:23.249Z,102.40
2017-10-19T01:25:50.559Z,71.83
2017-10-19T01:28:16.747Z,91.50
2017-10-19T01:30:42.955Z,94.00
2017-10-19T01:33:09.120Z,94.47
2017-10-19T01:35:35.312Z,112.83
2017-10-19T01:38:01.485Z,181.63
2017-10-19T01:40:27.687Z,112.43
2017-10-19T01:42:54.600Z,74.07
2017-10-19T01:45:21.013Z,68.57
2017-10-19T01:47:47.188Z,112.20
2017-10-19T01:50:13.377Z,149.80
2017-10-19T01:52:39.547Z,92.43
2017-10-19T01:55:05.748Z,109.57
2017-10-19T01:57:32.673Z,84.73
2017-10-19T01:59:58.884Z,117.00
2017-10-19T02:02:25.051Z,92.53
2017-10-19T02:04:51.247Z,162.07
2017-10-19T02:07:17.421Z,86.83
2017-10-19T02:09:43.621Z,132.57
2017-10-19T02:12:09.800Z,72.87
2017-10-19T02:14:36.133Z,57.03
2017-10-19T02:17:02.305Z,74.83
2017-10-19T02:19:29.228Z,212.13
2017-10-19T02:21:55.423Z,103.10
2017-10-19T02:24:21.583Z,154.87
2017-10-19T02:26:48.524Z,59.23
2017-10-19T02:29:14.693Z,65.00
2017-10-19T02:31:40.949Z,53.37
2017-10-19T02:34:07.108Z,90.30
2017-10-19T02:36:33.296Z,74.90
2017-10-19T02:39:00.191Z,72.87
2017-10-19T02:41:26.387Z,69.30
2017-10-19T02:43:52.543Z,71.23
2017-10-19T02:46:19.437Z,58.57
2017-10-19T02:48:45.612Z,85.20
2017-10-19T02:51:11.789Z,65.57
2017-10-19T02:53:38.764Z,124.47
2017-10-19T02:56:04.957Z,190.57
2017-10-19T02:58:31.154Z,172.20
2017-10-19T03:00:57.340Z,134.50
2017-10-19T03:03:23.537Z,70.43
2017-10-19T03:05:49.709Z,106.17
2017-10-19T03:08:15.912Z,119.60
2017-10-19T03:10:42.087Z,81.40
2017-10-19T03:13:08.309Z,74.80
2017-10-19T03:15:34.489Z,114.30
2017-10-19T03:18:00.676Z,97.37
2017-10-19T03:20:26.843Z,86.47
2017-10-19T03:22:52.991Z,53.03
2017-10-19T03:25:19.232Z,62.10
2017-10-19T03:27:45.389Z,151.20
2017-10-19T03:30:11.592Z,56.57
2017-10-19T03:32:37.783Z,53.70
2017-10-19T03:35:03.988Z,84.20
2017-10-19T03:37:30.156Z,83.30
2017-10-19T03:39:56.364Z,80.80
2017-10-19T03:42:22.540Z,141.00
2017-10-19T03:44:48.732Z,78.23
2017-10-19T03:47:14.913Z,99.37
2017-10-19T03:49:41.255Z,85.13
2017-10-19T03:52:07.475Z,43.37
2017-10-19T03:54:33.661Z,67.43
2017-10-19T03:56:59.872Z,100.33
2017-10-19T03:59:26.040Z,143.03
2017-10-19T04:01:52.264Z,53.07
2017-10-19T04:04:18.455Z,51.13
2017-10-19T04:06:45.371Z,79.67
2017-10-19T04:09:12.268Z,57.43
2017-10-19T04:11:39.180Z,92.20
2017-10-19T04:14:05.339Z,40.83
2017-10-19T04:16:32.261Z,57.63
2017-10-19T04:18:58.412Z,111.80
2017-10-19T04:21:24.584Z,84.73
2017-10-19T04:23:50.738Z,100.47
2017-10-19T04:26:16.940Z,113.47
2017-10-19T04:28:43.097Z,60.80
2017-10-19T04:31:09.319Z,78.73
2017-10-19T04:33:35.516Z,77.87
2017-10-19T04:38:43.352Z,81.63
2017-10-19T04:41:09.508Z,65.07
2017-10-19T04:43:36.444Z,95.67
2017-10-19T04:46:02.660Z,70.53
2017-10-19T04:48:28.828Z,36.90
2017-10-19T04:50:54.993Z,33.10
2017-10-19T04:53:21.922Z,34.07
2017-10-19T04:55:48.083Z,37.43
2017-10-19T04:58:14.992Z,46.70
2017-10-19T05:00:41.145Z,52.10
2017-10-19T05:03:07.343Z,60.43
2017-10-19T05:05:33.527Z,77.10
2017-10-19T05:07:59.741Z,71.40
2017-10-19T05:10:25.908Z,73.30
2017-10-19T05:12:52.087Z,50.00
2017-10-19T05:15:19.022Z,50.60
2017-10-19T05:17:46.671Z,92.43
2017-10-19T05:20:12.863Z,75.73
2017-10-19T05:22:39.787Z,55.23
2017-10-19T05:25:05.976Z,62.67
2017-10-19T05:27:32.961Z,75.10
2017-10-19T05:29:59.191Z,56.23
2017-10-19T05:32:25.368Z,65.97
2017-10-19T05:34:51.535Z,59.30
2017-10-19T05:37:17.697Z,67.67
2017-10-19T05:39:44.616Z,88.07
2017-10-19T05:42:10.816Z,47.17
2017-10-19T05:44:37.018Z,74.73
2017-10-19T05:47:03.176Z,52.13
2017-10-19T05:49:30.140Z,41.33
2017-10-19T05:51:57.068Z,66.53
2017-10-19T05:54:23.320Z,63.17
2017-10-19T05:56:49.489Z,60.20
2017-10-19T05:59:16.426Z,42.93
2017-10-19T06:01:42.585Z,76.27
2017-10-19T07:20:05.644Z,33.33
2017-10-19T07:22:31.810Z,57.67
2017-10-19T07:24:58.002Z,25.83
2017-10-19T07:27:24.173Z,40.80
2017-10-19T07:29:50.374Z,49.77
2017-10-19T07:32:16.579Z,25.73
2017-10-19T07:34:42.752Z,33.63
2017-10-19T07:37:09.692Z,41.07
2017-10-19T07:39:35.865Z,27.17
2017-10-19T07:42:02.042Z,36.97
2017-10-19T07:44:28.204Z,95.57
2017-10-19T07:46:54.394Z,38.13
2017-10-19T07:49:20.558Z,27.17
2017-10-19T07:51:46.748Z,36.50
2017-10-19T07:54:13.657Z,25.80
2017-10-19T07:56:39.864Z,36.10
2017-10-19T07:59:06.020Z,28.57
2017-10-19T08:01:32.315Z,29.97
2017-10-19T08:03:58.483Z,24.70
2017-10-19T08:06:25.392Z,30.17
2017-10-19T08:08:51.572Z,25.90
2017-10-19T08:11:18.456Z,28.33
2017-10-19T08:13:44.640Z,33.40
2017-10-19T08:16:10.817Z,25.80
2017-10-19T08:18:37.787Z,34.97
2017-10-19T08:21:04.678Z,34.20
2017-10-19T08:23:30.910Z,27.23
2017-10-19T08:25:57.068Z,29.47
2017-10-19T08:28:23.253Z,37.93
2017-10-19T08:30:50.181Z,32.10
2017-10-19T08:33:16.359Z,28.17
2017-10-19T08:35:43.256Z,20.83
2017-10-19T08:38:09.431Z,47.40
2017-10-19T08:40:35.607Z,26.63
2017-10-19T08:43:02.523Z,25.20
2017-10-19T08:45:28.689Z,27.10
2017-10-19T08:47:54.860Z,31.93
2017-10-19T08:50:21.012Z,25.60
2017-10-19T08:52:47.190Z,37.73
2017-10-19T08:55:14.093Z,26.37
2017-10-19T08:57:41.009Z,24.53
2017-10-19T09:00:07.183Z,26.93
2017-10-19T09:02:34.133Z,24.20
2017-10-19T09:05:01.225Z,27.60
2017-10-19T09:07:27.410Z,29.97
2017-10-19T09:09:53.563Z,23.67
2017-10-19T09:12:19.743Z,26.23
2017-10-19T09:14:45.907Z,25.80
2017-10-19T09:17:12.093Z,25.37
2017-10-19T09:19:38.251Z,26.77
2017-10-19T09:22:05.188Z,26.10
2017-10-19T09:24:31.568Z,26.17
2017-10-19T09:26:57.777Z,25.70
2017-10-19T09:29:23.998Z,28.60
2017-10-19T09:31:50.195Z,25.43
2017-10-19T09:34:17.088Z,28.07
2017-10-19T09:36:43.267Z,27.63
2017-10-19T09:39:09.415Z,31.63
2017-10-19T09:41:35.568Z,27.17
2017-10-19T09:44:02.488Z,29.30
2017-10-19T09:46:28.640Z,29.20
2017-10-19T09:48:54.821Z,27.63
2017-10-19T09:51:20.980Z,32.10
2017-10-19T09:53:47.170Z,29.87
2017-10-19T09:56:13.330Z,30.10
2017-10-19T09:58:40.249Z,29.67
2017-10-19T10:01:06.426Z,31.67
2017-10-19T10:03:33.352Z,29.20
2017-10-19T10:05:59.501Z,32.83
2017-10-19T10:08:25.696Z,31.33
2017-10-19T10:10:51.857Z,36.13
2017-10-19T10:13:18.047Z,33.47
2017-10-19T10:15:44.966Z,33.33
2017-10-19T10:18:11.168Z,31.63
2017-10-19T10:20:37.366Z,32.43
2017-10-19T10:23:03.579Z,34.73
2017-10-19T10:25:29.751Z,29.83
2017-10-19T10:27:55.931Z,34.97
2017-10-19T10:30:22.849Z,33.20
2017-10-19T10:32:49.015Z,34.00
2017-10-19T10:35:15.901Z,28.07
2017-10-19T10:37:42.089Z,30.03
2017-10-19T10:40:08.252Z,31.27
2017-10-19T10:42:35.169Z,30.00
2017-10-19T10:45:01.351Z,31.10
2017-10-19T10:47:28.301Z,34.67
2017-10-19T10:49:54.478Z,31.60
2017-10-19T10:52:20.664Z,29.67
2017-10-19T10:54:46.829Z,35.30
2017-10-19T10:57:13.027Z,26.83
2017-10-19T10:59:39.191Z,23.93
2017-10-19T11:02:05.352Z,31.30
2017-10-19T11:04:31.546Z,30.10
2017-10-19T11:06:57.715Z,26.97
2017-10-19T11:09:23.922Z,29.67
2017-10-19T11:11:50.082Z,29.83
2017-10-19T11:14:17.312Z,25.93
2017-10-19T11:16:43.496Z,28.23
2017-10-19T11:19:09.689Z,27.93
2017-10-19T11:21:36.588Z,26.23
2017-10-19T11:24:02.767Z,24.73
2017-10-19T11:26:28.936Z,29.93
2017-10-19T11:28:55.122Z,26.83
2017-10-19T11:31:21.300Z,25.40
2017-10-19T11:33:48.223Z,27.83
2017-10-19T11:36:14.396Z,23.43
2017-10-19T11:38:41.313Z,23.90
2017-10-19T11:41:07.477Z,25.60
2017-10-19T11:43:33.660Z,25.40
2017-10-19T11:45:59.814Z,26.53
2017-10-19T11:48:26.003Z,25.63
2017-10-19T11:50:52.904Z,27.13
2017-10-19T11:53:19.088Z,26.23
2017-10-19T11:55:45.262Z,25.63
2017-10-19T11:58:12.192Z,25.43
2017-10-19T12:00:38.430Z,23.60
2017-10-19T12:03:04.645Z,24.10
2017-10-19T12:05:30.816Z,23.67
2017-10-19T12:07:56.984Z,28.30
2017-10-19T12:10:38.843Z,31.23
2017-10-19T12:13:05.029Z,22.90
2017-10-19T12:15:31.190Z,26.53
2017-10-19T12:17:58.114Z,20.57
2017-10-19T12:20:24.292Z,23.33
2017-10-19T12:22:51.353Z,23.43
2017-10-19T12:25:18.310Z,23.00
2017-10-19T12:27:45.209Z,23.60
2017-10-19T12:30:11.409Z,18.57
2017-10-19T12:32:38.420Z,19.07
2017-10-19T12:35:04.604Z,22.60
2017-10-19T12:37:31.517Z,17.90
2017-10-19T12:39:57.705Z,24.90
2017-10-19T12:42:24.622Z,16.40
2017-10-19T12:44:50.806Z,16.33
2017-10-19T12:47:17.725Z,15.73
2017-10-19T12:49:43.925Z,19.03
2017-10-19T12:52:10.089Z,20.43
2017-10-19T12:54:36.282Z,18.97
2017-10-19T12:57:02.457Z,22.67
2017-10-19T12:59:28.639Z,19.10
2017-10-19T13:01:54.796Z,18.03
2017-10-19T13:04:20.981Z,19.83
2017-10-19T13:06:47.127Z,18.43
2017-10-19T13:09:13.423Z,18.60
2017-10-19T13:11:39.595Z,19.10
2017-10-19T13:14:06.506Z,20.70
2017-10-19T13:16:32.692Z,20.20
2017-10-19T13:18:59.631Z,21.53
2017-10-19T13:21:25.779Z,19.37
2017-10-19T13:23:51.990Z,18.87
2017-10-19T13:26:18.162Z,17.10
2017-10-19T13:28:45.069Z,25.47
2017-10-19T13:31:11.270Z,19.20
2017-10-19T13:33:38.246Z,17.67
2017-10-19T13:36:04.407Z,18.23
2017-10-19T13:38:30.581Z,20.87
2017-10-19T13:40:56.773Z,29.23
2017-10-19T13:43:22.933Z,19.30
2017-10-19T13:45:49.152Z,16.67
2017-10-19T13:48:15.315Z,23.27
2017-10-19T13:50:41.539Z,18.03
2017-10-19T13:53:07.737Z,18.00
2017-10-19T13:55:34.016Z,16.47
2017-10-19T14:00:53.940Z,16.20
2017-10-19T14:03:20.844Z,19.53
2017-10-19T14:05:47.025Z,19.43
2017-10-19T14:08:13.919Z,22.23
2017-10-19T14:10:40.083Z,15.83
2017-10-19T14:13:06.253Z,14.73
2017-10-19T14:15:32.434Z,15.47
2017-10-19T14:17:58.597Z,18.50
2017-10-19T14:20:25.064Z,19.23
2017-10-19T14:22:51.233Z,15.77
2017-10-19T14:25:17.400Z,20.93
2017-10-19T14:27:43.565Z,17.50
2017-10-19T14:30:09.791Z,19.00
2017-10-19T14:32:35.934Z,16.90
2017-10-19T14:35:02.112Z,19.97
2017-10-19T14:37:28.297Z,15.53
2017-10-19T14:39:55.242Z,18.87
2017-10-19T14:42:21.396Z,19.30
2017-10-19T14:44:47.567Z,19.50
2017-10-19T14:47:13.725Z,21.60
2017-10-19T14:49:39.888Z,25.10
2017-10-19T14:52:06.064Z,20.07
2017-10-19T14:54:32.999Z,23.60
2017-10-19T14:56:59.171Z,25.60
2017-10-19T14:59:25.352Z,23.73
2017-10-19T15:01:52.289Z,29.60
2017-10-19T15:04:25.464Z,23.17
2017-10-19T15:06:52.427Z,23.40
2017-10-19T15:09:19.328Z,26.37
2017-10-19T15:11:45.505Z,29.73
2017-10-19T15:14:11.683Z,23.10
2017-10-19T15:16:37.861Z,31.20
2017-10-19T15:19:04.033Z,28.30
2017-10-19T15:21:30.200Z,28.47
2017-10-19T15:23:57.111Z,30.30
2017-10-19T15:26:23.287Z,35.50
2017-10-19T15:28:50.190Z,35.73
2017-10-19T15:31:16.414Z,35.80
2017-10-19T15:33:42.585Z,35.73
2017-10-19T15:36:08.771Z,35.40
2017-10-19T15:38:35.673Z,34.93
2017-10-19T15:41:01.840Z,37.93
2017-10-19T15:43:28.013Z,38.27
2017-10-19T15:45:54.908Z,34.80
2017-10-19T15:48:21.086Z,36.83
2017-10-19T15:51:00.572Z,36.10
2017-10-19T15:53:27.496Z,35.27
2017-10-19T15:55:53.673Z,38.57
2017-10-19T15:58:20.599Z,34.20
2017-10-19T16:00:46.760Z,37.70
2017-10-19T16:03:13.691Z,34.60
2017-10-19T16:05:39.884Z,34.90
2017-10-19T16:08:06.083Z,46.83
2017-10-19T16:10:32.236Z,38.00
2017-10-19T16:12:58.431Z,38.73
2017-10-19T16:15:24.605Z,36.67
2017-10-19T16:17:50.788Z,44.23
2017-10-19T16:20:16.948Z,41.97
2017-10-19T16:22:43.133Z,50.83
2017-10-19T16:25:09.289Z,41.43
2017-10-19T16:27:36.203Z,44.90
2017-10-19T16:30:02.400Z,49.93
2017-10-19T16:32:29.344Z,47.03
2017-10-19T16:34:55.500Z,52.73
2017-10-19T16:37:22.430Z,62.27
2017-10-19T16:39:48.599Z,56.07
2017-10-19T16:42:15.555Z,59.30
2017-10-19T16:44:41.756Z,61.13
2017-10-19T16:47:07.923Z,59.57
2017-10-19T16:49:34.224Z,69.47
2017-10-19T16:52:00.393Z,58.33
2017-10-19T16:54:27.321Z,59.70
2017-10-19T16:56:53.477Z,63.53
2017-10-19T16:59:19.684Z,62.97
2017-10-19T17:01:45.840Z,63.37
2017-10-19T17:04:12.021Z,66.03
2017-10-19T17:06:38.219Z,69.03
2017-10-19T17:09:04.413Z,72.00
2017-10-19T17:11:30.578Z,64.17
2017-10-19T17:13:56.778Z,66.83
2017-10-19T17:16:22.980Z,67.63
2017-10-19T17:18:49.203Z,80.33
2017-10-19T17:21:16.109Z,72.13
2017-10-19T17:23:42.296Z,69.60
2017-10-19T17:26:09.191Z,65.97
2017-10-19T17:28:35.369Z,71.53
2017-10-19T17:31:01.551Z,71.90
2017-10-19T17:33:28.465Z,77.10
2017-10-19T17:35:54.627Z,73.97
2017-10-19T17:38:20.816Z,72.83
2017-10-19T17:40:46.983Z,79.63
2017-10-19T17:43:13.168Z,70.37
2017-10-19T17:45:40.062Z,74.00
2017-10-19T17:48:06.265Z,76.83
2017-10-19T17:50:33.191Z,71.60
2017-10-19T17:52:59.358Z,77.23
2017-10-19T17:55:26.322Z,73.73
2017-10-19T17:57:53.244Z,74.47
2017-10-19T18:00:19.432Z,82.73
2017-10-19T18:02:46.335Z,71.93
2017-10-19T18:05:12.541Z,82.13
2017-10-19T18:07:38.760Z,76.43
2017-10-19T18:10:05.714Z,73.67
2017-10-19T18:12:31.923Z,79.03
2017-10-19T18:14:58.124Z,78.73
2017-10-19T18:17:24.304Z,80.60
2017-10-19T18:19:50.505Z,77.50
2017-10-19T18:22:16.657Z,78.37
2017-10-19T18:24:42.952Z,75.33
2017-10-19T18:27:09.111Z,82.57
2017-10-19T18:29:36.033Z,81.20
2017-10-19T18:32:02.504Z,82.60
2017-10-19T18:34:29.122Z,77.30
2017-10-19T18:36:55.319Z,83.53
2017-10-19T18:39:22.236Z,78.33
2017-10-19T18:41:48.388Z,88.90
2017-10-19T18:44:14.643Z,86.47
2017-10-19T18:46:40.811Z,78.77
2017-10-19T18:49:07.702Z,95.73
2017-10-19T18:51:33.885Z,87.87
2017-10-19T18:54:00.066Z,89.80
2017-10-19T18:56:26.240Z,97.13
2017-10-19T18:58:52.421Z,94.90
2017-10-19T19:01:19.344Z,106.90
2017-10-19T19:03:45.496Z,100.17
2017-10-19T19:06:11.681Z,96.57
2017-10-19T19:08:37.840Z,99.53
2017-10-19T19:11:04.017Z,101.90
2017-10-19T19:13:30.176Z,92.77
2017-10-19T19:15:56.415Z,98.53
2017-10-19T19:18:22.571Z,101.80
2017-10-19T19:20:49.485Z,98.87
2017-10-19T19:23:15.627Z,109.43
2017-10-19T19:25:41.801Z,87.50
2017-10-19T19:28:07.938Z,112.63
2017-10-19T19:30:34.144Z,100.93
2017-10-19T19:33:00.343Z,100.53
2017-10-19T19:35:27.273Z,100.80
2017-10-19T19:37:53.436Z,105.07
2017-10-19T19:40:20.359Z,112.07
2017-10-19T19:42:46.522Z,99.87
2017-10-19T19:45:13.446Z,102.37
2017-10-19T19:47:39.620Z,102.37
2017-10-19T19:50:05.804Z,96.63
2017-10-19T19:52:31.964Z,113.20
2017-10-19T19:54:58.148Z,107.40
2017-10-19T19:57:24.307Z,98.00
2017-10-19T19:59:51.252Z,100.23
2017-10-19T20:02:18.164Z,105.00
2017-10-19T20:04:44.341Z,98.90
2017-10-19T20:07:10.510Z,92.83
2017-10-19T20:09:37.431Z,114.23
2017-10-19T20:12:03.592Z,100.13
2017-10-19T20:14:29.795Z,99.53
2017-10-19T20:16:55.955Z,101.70
2017-10-19T20:19:22.137Z,103.20
2017-10-19T20:21:48.289Z,94.37
2017-10-19T20:24:14.464Z,110.70
2017-10-19T20:26:40.625Z,113.30
2017-10-19T20:29:06.806Z,105.30
2017-10-19T20:31:32.985Z,105.83
2017-10-19T20:33:59.163Z,115.40
2017-10-19T20:36:26.077Z,112.07
2017-10-19T20:38:52.264Z,110.63
2017-10-19T20:41:19.155Z,111.67
2017-10-19T20:43:45.349Z,117.97
2017-10-19T20:46:11.525Z,103.47
2017-10-19T20:48:37.686Z,112.97
2017-10-19T20:51:03.889Z,103.73
2017-10-19T20:53:31.080Z,106.60
2017-10-19T20:55:57.228Z,131.07
2017-10-19T20:58:23.396Z,106.53
2017-10-19T21:00:49.608Z,103.20
2017-10-19T21:03:15.847Z,106.57
2017-10-19T21:05:42.053Z,101.93
2017-10-19T21:08:08.272Z,123.37
2017-10-19T21:10:34.874Z,109.03
2017-10-19T21:13:01.184Z,123.13
2017-10-19T21:15:27.628Z,120.10
2017-10-19T21:17:53.807Z,137.47
2017-10-19T21:20:20.248Z,160.20
2017-10-19T21:22:47.172Z,194.03
2017-10-19T21:25:13.368Z,123.83
2017-10-19T21:27:39.601Z,110.37
2017-10-19T21:30:05.804Z,128.80
2017-10-19T21:32:32.005Z,120.03
2017-10-19T21:34:58.171Z,122.33
2017-10-19T21:37:24.344Z,108.97
2017-10-19T21:39:51.269Z,110.87
2017-10-19T21:42:17.423Z,95.10
2017-10-19T21:44:43.716Z,92.77
2017-10-19T21:47:09.876Z,104.87
2017-10-19T21:49:36.053Z,102.57
2017-10-19T21:52:02.227Z,95.10
2017-10-19T21:54:29.151Z,90.37
2017-10-19T21:56:55.321Z,92.70
2017-10-19T21:59:21.516Z,92.23
2017-10-19T22:01:47.671Z,83.33
2017-10-19T22:04:13.855Z,98.80
2017-10-19T22:06:40.082Z,94.30
2017-10-19T22:09:06.992Z,88.50
2017-10-19T22:11:33.151Z,84.80
2017-10-19T22:13:59.339Z,91.60
2017-10-19T22:16:25.490Z,94.47
2017-10-19T22:18:51.664Z,108.43
2017-10-19T22:21:17.848Z,82.80
2017-10-19T22:23:44.771Z,85.03
2017-10-19T22:26:10.933Z,84.00
2017-10-19T22:28:37.132Z,73.73
2017-10-19T22:31:03.323Z,83.67
2017-10-19T22:33:30.225Z,82.10
2017-10-19T22:35:56.394Z,83.80
2017-10-19T22:38:22.556Z,84.00
2017-10-19T22:40:48.725Z,91.43
2017-10-19T22:43:14.888Z,86.73
2017-10-19T22:45:41.075Z,92.33
2017-10-19T22:48:07.224Z,99.13
2017-10-19T22:50:34.153Z,108.63
2017-10-19T22:53:00.323Z,96.90
2017-10-19T22:55:26.525Z,95.80
2017-10-19T22:57:52.676Z,97.70
2017-10-19T23:00:18.856Z,87.77
2017-10-19T23:02:45.819Z,84.90
2017-10-19T23:05:12.741Z,94.27
2017-10-19T23:07:38.977Z,75.10
2017-10-19T23:10:05.164Z,72.80
2017-10-19T23:12:32.113Z,79.77
2017-10-19T23:14:58.284Z,63.90
2017-10-19T23:17:24.439Z,64.17
2017-10-19T23:19:50.635Z,73.13
2017-10-19T23:22:17.531Z,70.70
2017-10-19T23:24:43.716Z,68.90
2017-10-19T23:27:09.880Z,75.90
2017-10-19T23:29:36.796Z,77.60
2017-10-19T23:32:02.995Z,71.17
2017-10-19T23:34:29.911Z,64.87
2017-10-19T23:36:56.067Z,69.97
2017-10-19T23:39:22.254Z,62.70
2017-10-19T23:41:48.440Z,60.87
2017-10-19T23:44:14.636Z,61.77
2017-10-19T23:46:40.789Z,67.17
2017-10-19T23:49:06.972Z,64.57
2017-10-19T23:51:33.135Z,66.27
2017-10-19T23:53:59.344Z,59.57
2017-10-19T23:56:25.520Z,66.50
2017-10-19T23:58:52.453Z,62.53
